• Join FlightAware (Why Join?)
  • Login
  • US Flag GB Flag 
11:56 EDT


 

Airport Tracker/Info


-or-


 

Live Flight TrackerFlight Track Log ✈ N45EJ ✈ 16-Aug-2013 ✈ I68 - KPWK

Flight Track Log - Related Links

Times and Time Zones

All times are in EDT time to prevent confusion due to time zone crossing. See the N45EJ flight status page for this flight to view local times or setup timezone preferences in your user account.

Time Position Orientation Groundspeed Altitude Reporting Facility
EDT Latitude Longitude Course Direction KTS MPH feet Rate Location/Type
23:29 39.5272 -84.2628 328° Northwest 212 244 4,400  Level Indianapolis Center
23:30 39.5572 -84.2872 328° Northwest 233 268 5,800 2,880 Climbing Indianapolis Center
23:31 39.6175 -84.3414 325° Northwest 257 296 9,000 3,060 Climbing Indianapolis Center
23:32 39.6847 -84.4006 326° Northwest 284 327 12,100 2,940 Climbing Indianapolis Center
23:33 39.7569 -84.4647 326° Northwest 306 352 15,000 2,760 Climbing Indianapolis Center
23:34 39.8314 -84.5308 326° Northwest 318 366 17,700 2,700 Climbing Indianapolis Center
23:35 39.9069 -84.5989 325° Northwest 326 375 20,500 2,100 Climbing Indianapolis Center
23:36 39.9867 -84.6692 326° Northwest 338 389 22,000 720 Climbing Indianapolis Center
23:37 40.0808 -84.7533 326° Northwest 398 458 22,000  Level Indianapolis Center
23:38 40.1783 -84.8414 325° Northwest 421 484 22,000  Level Indianapolis Center
23:39 40.2731 -84.9283 325° Northwest 425 489 22,000  Level Indianapolis Center
23:40 40.3711 -85.0169 325° Northwest 430 495 22,000  Level Indianapolis Center
23:41 40.4672 -85.1069 325° Northwest 428 493 22,000  Level Indianapolis Center
23:42 40.5581 -85.2072 320° Northwest 430 495 22,000  Level Indianapolis Center
23:43 40.6656 -85.3272 320° Northwest 426 490 22,000  Level Indianapolis Center
23:44 40.7567 -85.4283 320° Northwest 427 491 22,000  Level Chicago Center
23:45 40.8461 -85.5300 319° Northwest 425 489 22,000  Level Chicago Center
23:46 40.9378 -85.6297 321° Northwest 425 489 22,000  Level Chicago Center
23:47 41.0278 -85.7319 319° Northwest 425 489 22,000  Level Chicago Center
23:48 41.1192 -85.8339 320° Northwest 427 491 22,000  Level Chicago Center
23:49 41.2089 -85.9369 319° Northwest 425 489 22,000  Level Chicago Center
23:50 41.3000 -86.0408 319° Northwest 428 493 22,000  Level Chicago Center
23:51 41.3972 -86.1328 325° Northwest 430 495 22,000  Level Chicago Center
23:52 41.4992 -86.2144 329° Northwest 427 491 22,000 -60 Level Chicago Center
23:53 41.6017 -86.2961 329° Northwest 428 493 21,900 -600 Descending Chicago Center
23:54 41.7028 -86.3797 328° Northwest 426 490 20,900 -1,020 Descending Chicago Center
23:55 41.8000 -86.4594 329° Northwest 413 475 19,900 -1,140 Descending Chicago Center
23:56 41.8967 -86.5375 329° Northwest 405 466 18,600 -1,260 Descending Chicago Center
23:57 41.9928 -86.6175 328° Northwest 406 467 17,400 -1,380 Descending Chicago Center
23:58 42.0875 -86.6956 329° Northwest 388 447 15,900 -1,500 Descending Chicago Center
23:59 42.1808 -86.7736 328° Northwest 396 456 14,400 -960 Descending Chicago Center
00:00 42.2719 -86.8494 328° Northwest 390 449 14,000 -240 Descending Chicago Center
00:01 42.3592 -86.9519 319° Northwest 388 447 14,000 -660 Level Chicago Center
00:02 42.3567 -87.0869 269° West 371 427 12,700 -1,380 Descending Chicago Center
00:03 42.3378 -87.2056 258° West 332 382 11,300 -900 Descending Chicago Center
00:04 42.3211 -87.3161 259° West 305 351 10,900 -1,020 Descending Chicago Center
00:05 42.3128 -87.4294 264° West 296 341 9,300 -1,800 Descending Chicago Center
00:06 42.3086 -87.5361 267° West 289 333 7,300 -1,980 Descending Chicago Center
00:07 42.3017 -87.6392 265° West 282 325 5,300 -1,860 Descending Chicago Center
00:08 42.3017 -87.7422 270° West 280 322 3,600 -1,200 Descending Chicago Center
00:09 42.3006 -87.8306 269° West 254 292 2,900 -540 Descending Chicago Center
00:10 42.3006 -87.9097 270° West 218 251 2,600 -300 Descending Chicago Center
00:11 42.2997 -87.9808 269° West 207 238 2,300 -180 Descending Chicago Center
00:12 42.2942 -88.0450 263° West 190 219 2,300  Level Chicago Center
00:13 42.2597 -88.0117 144° Southeast 170 196 2,300  Level Chicago Center
00:14 42.2292 -87.9564 127° Southeast 165 190 2,300  Level Chicago Center
00:16 42.1143 -87.9015 169° South  Level Estimated
00:23 42.1143 -87.9015 169° South  Level Estimated
00:24 42.1143 -87.9015 169° South  Level Estimated